Time;durP1;ratioP1;P1;durP2;ratioP2;P2;SDS_P1;SDS_P2;PMS_P1;PMS_P2;Temp;Humidity;BMP_temperature;BMP_pressure;BME280_temperature;BME280_humidity;BME280_pressure;Samples;Min_cycle;Max_cycle;Signal;HPM_P1;HPM_P2
2022/07/07 00:00:38;;;;;;;3.08;1.42;;;15.80;99.90;;;;;;5029668;28;20208;-56
2022/07/07 00:03:05;;;;;;;7.63;1.77;;;15.80;99.90;;;;;;5030410;28;20316;-56
2022/07/07 00:05:32;;;;;;;4.57;1.60;;;15.80;99.90;;;;;;5030618;28;20572;-56
2022/07/07 00:07:59;;;;;;;4.25;1.50;;;15.70;99.90;;;;;;5031966;28;20289;-56
2022/07/07 00:10:26;;;;;;;3.50;1.40;;;15.60;99.90;;;;;;5032084;28;20555;-57
2022/07/07 00:12:53;;;;;;;7.05;1.60;;;15.60;99.90;;;;;;5009003;28;20044;-56
2022/07/07 00:15:21;;;;;;;3.45;1.27;;;15.50;99.90;;;;;;5010862;28;20143;-57
2022/07/07 00:17:48;;;;;;;9.88;1.65;;;15.50;99.90;;;;;;5005748;28;20960;-57
2022/07/07 00:20:15;;;;;;;1.83;1.33;;;15.40;99.90;;;;;;5021721;28;21024;-56
2022/07/07 00:22:42;;;;;;;5.68;1.60;;;15.40;99.90;;;;;;5030963;28;20059;-57
2022/07/07 00:25:09;;;;;;;9.07;1.30;;;15.30;99.90;;;;;;5029570;28;20496;-57
2022/07/07 00:27:37;;;;;;;1.60;1.38;;;15.30;99.90;;;;;;5024670;28;20032;-57
2022/07/07 00:30:05;;;;;;;1.45;1.23;;;15.30;99.90;;;;;;5028443;28;20556;-57
2022/07/07 00:32:32;;;;;;;3.47;1.50;;;15.30;99.90;;;;;;5031006;28;20063;-56
2022/07/07 00:34:59;;;;;;;6.28;1.48;;;15.30;99.90;;;;;;5027482;28;20036;-57
2022/07/07 00:37:26;;;;;;;;;;;15.30;99.90;;;;;;5033450;28;20036;-57
2022/07/07 00:39:53;;;;;;;2.70;1.45;;;15.30;99.90;;;;;;5031170;28;19920;-56
2022/07/07 00:42:20;;;;;;;4.70;1.88;;;15.20;99.90;;;;;;5010015;28;20032;-56
2022/07/07 00:44:47;;;;;;;2.95;1.50;;;15.20;99.90;;;;;;5030973;28;20051;-58
2022/07/07 00:47:15;;;;;;;4.60;1.58;;;15.10;99.90;;;;;;5030518;28;20094;-56
2022/07/07 00:49:42;;;;;;;2.08;1.35;;;15.00;99.90;;;;;;5031450;28;20043;-57
2022/07/07 00:52:11;;;;;;;3.17;1.83;;;15.00;99.90;;;;;;5030817;28;20036;-57
2022/07/07 00:54:38;;;;;;;2.53;1.50;;;15.00;99.90;;;;;;5014021;28;20054;-56
2022/07/07 00:57:05;;;;;;;;;;;15.00;99.90;;;;;;5028158;28;20036;-57
2022/07/07 00:59:57;;;;;;;3.50;1.50;;;15.00;99.90;;;;;;5030830;28;19931;-57
2022/07/07 01:02:28;;;;;;;2.60;1.30;;;15.00;99.90;;;;;;5031020;28;20032;-57
2022/07/07 01:04:57;;;;;;;2.17;1.40;;;14.90;99.90;;;;;;5026683;28;20043;-57
2022/07/07 01:07:26;;;;;;;2.90;1.23;;;14.90;99.90;;;;;;5029994;28;20117;-57
2022/07/07 01:09:55;;;;;;;2.03;1.40;;;14.90;99.90;;;;;;5027295;28;20770;-58
2022/07/07 01:12:22;;;;;;;3.05;1.60;;;14.90;99.90;;;;;;5026575;28;20032;-57
2022/07/07 01:14:50;;;;;;;2.33;1.52;;;14.90;99.90;;;;;;5009204;28;20781;-57
2022/07/07 01:17:17;;;;;;;3.08;1.80;;;14.90;99.90;;;;;;5011543;28;20597;-57
2022/07/07 01:19:44;;;;;;;5.85;1.50;;;14.90;99.90;;;;;;5019779;28;20039;-57
2022/07/07 01:22:16;;;;;;;2.92;1.35;;;14.90;99.90;;;;;;5029638;28;20044;-58
2022/07/07 01:24:43;;;;;;;7.88;1.85;;;14.80;99.90;;;;;;5030058;28;20051;-56
2022/07/07 01:27:13;;;;;;;5.20;1.60;;;14.80;99.90;;;;;;5027760;28;20036;-56
2022/07/07 01:29:45;;;;;;;4.95;1.80;;;14.80;99.90;;;;;;4996016;28;20304;-58
2022/07/07 01:32:13;;;;;;;11.52;1.50;;;14.70;99.90;;;;;;5009618;28;20041;-57
2022/07/07 01:34:42;;;;;;;1.92;1.50;;;14.70;99.90;;;;;;5009771;28;20370;-57
2022/07/07 01:37:10;;;;;;;1.90;1.30;;;14.60;99.90;;;;;;5012172;28;20040;-57
2022/07/07 01:39:38;;;;;;;2.78;1.45;;;14.60;99.90;;;;;;5008650;28;20048;-56
2022/07/07 01:42:06;;;;;;;2.28;1.50;;;14.50;99.90;;;;;;5011321;28;20105;-57
2022/07/07 01:44:35;;;;;;;2.03;1.40;;;14.50;99.90;;;;;;5005704;28;20048;-57
2022/07/07 01:47:02;;;;;;;13.70;1.92;;;14.50;99.90;;;;;;5011305;28;20041;-56
2022/07/07 01:49:31;;;;;;;4.13;1.60;;;14.50;99.90;;;;;;5022438;28;20036;-56
2022/07/07 01:51:58;;;;;;;3.95;1.70;;;14.40;99.90;;;;;;5025359;28;20055;-56
2022/07/07 01:54:27;;;;;;;4.30;1.50;;;14.40;99.90;;;;;;5026340;28;20209;-56
2022/07/07 01:56:54;;;;;;;2.38;1.60;;;14.40;99.90;;;;;;5009910;28;20368;-55
2022/07/07 01:59:21;;;;;;;4.00;1.77;;;14.40;99.90;;;;;;5031802;28;20576;-56
2022/07/07 02:01:48;;;;;;;9.95;1.67;;;14.30;99.90;;;;;;5026975;28;20054;-56
2022/07/07 02:04:15;;;;;;;2.50;1.58;;;14.30;99.90;;;;;;5030680;28;20040;-56
2022/07/07 02:06:42;;;;;;;4.18;1.67;;;14.20;99.90;;;;;;5028348;28;20346;-56
2022/07/07 02:09:09;;;;;;;4.50;1.63;;;14.20;99.90;;;;;;5030530;28;20328;-55
2022/07/07 02:11:36;;;;;;;3.67;1.90;;;14.20;99.90;;;;;;5033123;28;20213;-56
2022/07/07 02:14:04;;;;;;;6.22;1.80;;;14.10;99.90;;;;;;5013612;28;20636;-55
2022/07/07 02:16:33;;;;;;;7.32;2.65;;;14.10;99.90;;;;;;5011711;28;20528;-55
2022/07/07 02:19:04;;;;;;;8.27;2.42;;;14.00;99.90;;;;;;5015796;28;20206;-56
2022/07/07 02:21:32;;;;;;;4.85;2.03;;;13.90;99.90;;;;;;5015600;28;20040;-56
2022/07/07 02:23:59;;;;;;;5.88;2.35;;;13.80;99.90;;;;;;5011946;28;20573;-54
2022/07/07 02:26:27;;;;;;;6.03;2.35;;;13.70;99.90;;;;;;5011613;28;20151;-57
2022/07/07 02:28:54;;;;;;;5.85;2.25;;;13.70;99.90;;;;;;5028433;28;20105;-56
2022/07/07 02:31:21;;;;;;;2.75;1.98;;;13.70;99.90;;;;;;4994037;28;20087;-57
2022/07/07 02:33:48;;;;;;;5.57;2.08;;;13.60;99.90;;;;;;4993378;28;20044;-56
2022/07/07 02:36:15;;;;;;;4.45;2.00;;;13.60;99.90;;;;;;5011492;28;20047;-55
2022/07/07 02:38:42;;;;;;;5.20;1.83;;;13.60;99.90;;;;;;5012678;28;20360;-56
2022/07/07 02:41:09;;;;;;;10.45;1.92;;;13.60;99.90;;;;;;5010821;28;20048;-56
2022/07/07 02:43:36;;;;;;;4.25;2.28;;;13.60;99.90;;;;;;5011350;28;20237;-55
2022/07/07 02:46:03;;;;;;;2.60;1.67;;;13.50;99.90;;;;;;5012433;28;20083;-54
2022/07/07 02:48:31;;;;;;;2.53;2.33;;;13.50;99.90;;;;;;5009397;28;20045;-56
2022/07/07 02:50:58;;;;;;;6.28;2.97;;;13.50;99.90;;;;;;5014969;28;20657;-56
2022/07/07 02:53:25;;;;;;;5.68;2.85;;;13.50;99.90;;;;;;4994103;28;20163;-56
2022/07/07 02:55:53;;;;;;;4.85;2.45;;;13.40;99.90;;;;;;5014099;28;20064;-55
2022/07/07 02:58:20;;;;;;;3.15;2.70;;;13.40;99.90;;;;;;5013089;28;20052;-55
2022/07/07 03:00:47;;;;;;;15.48;3.35;;;13.40;99.90;;;;;;4999362;28;20217;-55
2022/07/07 03:03:14;;;;;;;3.95;2.72;;;13.30;99.90;;;;;;5033332;28;20043;-58
2022/07/07 03:05:42;;;;;;;4.80;2.90;;;13.30;99.90;;;;;;5027533;28;20593;-55
2022/07/07 03:08:09;;;;;;;5.75;3.40;;;13.30;99.90;;;;;;5016976;28;20050;-56
2022/07/07 03:10:37;;;;;;;11.75;3.35;;;13.30;99.90;;;;;;5012908;28;20040;-57
2022/07/07 03:13:04;;;;;;;4.57;3.05;;;13.30;99.90;;;;;;5013927;28;20742;-56
2022/07/07 03:15:31;;;;;;;5.20;2.70;;;13.30;99.90;;;;;;5014140;28;20033;-57
2022/07/07 03:17:58;;;;;;;4.28;3.13;;;13.30;99.90;;;;;;5013743;28;20833;-57
2022/07/07 03:20:25;;;;;;;4.13;2.90;;;13.30;99.90;;;;;;5020014;28;20044;-57
2022/07/07 03:22:53;;;;;;;5.03;3.25;;;13.30;99.90;;;;;;5027935;28;20114;-57
2022/07/07 03:25:20;;;;;;;4.35;3.00;;;13.30;99.90;;;;;;5032520;28;20583;-57
2022/07/07 03:27:47;;;;;;;5.63;2.85;;;13.30;99.90;;;;;;5031456;28;20735;-57
2022/07/07 03:30:14;;;;;;;4.55;2.83;;;13.30;99.90;;;;;;5029945;28;20154;-58
2022/07/07 03:32:41;;;;;;;8.50;3.17;;;13.30;99.90;;;;;;5034645;28;20132;-56
2022/07/07 03:35:09;;;;;;;9.23;3.80;;;13.30;99.90;;;;;;5029076;28;20139;-55
2022/07/07 03:37:36;;;;;;;7.72;3.65;;;13.20;99.90;;;;;;5020071;28;20109;-56
2022/07/07 03:40:05;;;;;;;9.70;3.72;;;13.20;99.90;;;;;;5030930;28;20281;-56
2022/07/07 03:42:32;;;;;;;4.32;3.60;;;13.10;99.90;;;;;;5035624;28;20035;-57
2022/07/07 03:45:00;;;;;;;6.53;3.63;;;13.10;99.90;;;;;;5031945;28;20035;-56
2022/07/07 03:47:27;;;;;;;11.35;3.40;;;13.10;99.90;;;;;;5030822;28;20033;-57
2022/07/07 03:49:54;;;;;;;4.47;3.35;;;13.10;99.90;;;;;;5032318;28;20043;-56
2022/07/07 03:52:21;;;;;;;5.78;2.97;;;13.00;99.90;;;;;;5028891;28;20044;-55
2022/07/07 03:54:48;;;;;;;2.83;2.53;;;13.00;99.90;;;;;;5012701;28;20055;-56
2022/07/07 03:57:15;;;;;;;7.70;3.25;;;13.00;99.90;;;;;;5028894;28;20855;-55
2022/07/07 03:59:42;;;;;;;4.63;3.38;;;13.00;99.90;;;;;;5034518;28;20043;-56
2022/07/07 04:02:10;;;;;;;5.68;3.40;;;13.00;99.90;;;;;;5034042;28;20198;-56
2022/07/07 04:04:37;;;;;;;9.23;3.55;;;13.00;99.90;;;;;;5029745;28;20098;-56
2022/07/07 04:07:05;;;;;;;5.63;4.38;;;13.00;99.90;;;;;;5012809;28;20339;-55
2022/07/07 04:09:32;;;;;;;3.72;3.40;;;12.90;99.90;;;;;;5032620;28;20946;-55
2022/07/07 04:11:59;;;;;;;5.57;3.78;;;12.90;99.90;;;;;;5036465;28;20116;-55
2022/07/07 04:14:26;;;;;;;5.82;4.32;;;12.90;99.90;;;;;;5008275;28;20400;-50
2022/07/07 04:16:54;;;;;;;4.70;3.75;;;12.90;99.90;;;;;;5010918;28;20205;-51
2022/07/07 04:19:22;;;;;;;6.50;4.00;;;12.90;99.90;;;;;;5016343;28;20478;-52
2022/07/07 04:21:49;;;;;;;12.70;4.40;;;12.90;99.90;;;;;;5010139;28;20036;-51
2022/07/07 04:24:16;;;;;;;6.57;3.85;;;12.90;99.90;;;;;;5012118;28;20154;-51
2022/07/07 04:26:43;;;;;;;8.20;3.60;;;13.00;99.90;;;;;;5007694;28;20858;-49
2022/07/07 04:29:10;;;;;;;10.32;3.97;;;13.00;99.90;;;;;;5013019;28;20043;-52
2022/07/07 04:31:43;;;;;;;3.88;3.35;;;13.00;99.90;;;;;;5011017;28;20766;-49
2022/07/07 04:34:14;;;;;;;6.68;3.67;;;13.00;99.90;;;;;;5031209;28;20052;-49
2022/07/07 04:36:41;;;;;;;6.60;4.25;;;13.10;99.90;;;;;;5032811;28;20576;-51
2022/07/07 04:39:11;;;;;;;3.85;3.55;;;13.20;99.90;;;;;;5030247;28;20063;-49
2022/07/07 04:41:38;;;;;;;6.57;3.97;;;13.30;99.90;;;;;;5033953;28;20554;-48
2022/07/07 04:44:05;;;;;;;7.43;3.83;;;13.30;99.90;;;;;;5026837;28;20040;-51
2022/07/07 04:46:33;;;;;;;4.78;3.58;;;13.40;99.90;;;;;;5012105;28;20114;-51
2022/07/07 04:49:00;;;;;;;6.45;3.53;;;13.50;99.90;;;;;;5029467;28;20236;-51
2022/07/07 04:51:28;;;;;;;4.53;3.47;;;13.50;99.90;;;;;;5013274;28;20035;-51
2022/07/07 04:53:55;;;;;;;4.38;3.92;;;13.60;99.90;;;;;;5029756;28;20581;-49
2022/07/07 04:56:22;;;;;;;6.95;4.07;;;13.70;99.90;;;;;;5027505;28;20133;-52
2022/07/07 04:58:50;;;;;;;7.85;3.78;;;13.70;99.90;;;;;;5030665;28;20763;-51
2022/07/07 05:01:17;;;;;;;5.80;3.88;;;13.80;99.90;;;;;;5012239;28;20762;-51
2022/07/07 05:03:44;;;;;;;4.80;4.03;;;13.90;99.90;;;;;;5028543;28;20289;-51
2022/07/07 05:06:12;;;;;;;5.30;3.92;;;13.90;99.90;;;;;;5009257;28;20040;-51
2022/07/07 05:08:39;;;;;;;11.38;3.85;;;14.00;99.90;;;;;;5011683;28;20824;-55
2022/07/07 05:11:07;;;;;;;5.25;3.53;;;14.10;99.90;;;;;;5026845;28;20332;-56
2022/07/07 05:13:34;;;;;;;5.75;3.70;;;14.20;99.90;;;;;;5015959;28;20206;-58
2022/07/07 05:16:02;;;;;;;6.75;3.40;;;14.20;99.90;;;;;;5017656;28;20122;-57
2022/07/07 05:18:32;;;;;;;8.05;3.83;;;14.30;99.90;;;;;;5009355;28;20251;-54
2022/07/07 05:20:59;;;;;;;6.03;4.28;;;14.40;99.90;;;;;;5025120;28;20383;-56
2022/07/07 05:23:27;;;;;;;4.88;3.80;;;14.40;99.90;;;;;;5010034;28;20151;-54
2022/07/07 05:25:55;;;;;;;6.47;3.20;;;14.50;99.90;;;;;;5030691;28;20863;-53
2022/07/07 05:28:22;;;;;;;4.80;3.28;;;14.50;99.90;;;;;;5031517;28;20036;-54
2022/07/07 05:30:50;;;;;;;7.63;3.75;;;14.50;99.90;;;;;;5030990;28;20722;-64
2022/07/07 05:33:17;;;;;;;6.32;3.72;;;14.60;99.90;;;;;;5030762;28;20197;-64
2022/07/07 05:35:44;;;;;;;7.63;3.83;;;14.60;99.90;;;;;;5026623;28;20259;-63
2022/07/07 05:38:12;;;;;;;8.25;5.30;;;14.70;99.90;;;;;;5030570;28;20126;-62
2022/07/07 05:40:39;;;;;;;4.95;4.40;;;14.80;99.90;;;;;;5030418;28;20040;-61
2022/07/07 05:43:06;;;;;;;10.25;4.80;;;14.80;99.90;;;;;;5012409;28;20066;-60
2022/07/07 05:45:34;;;;;;;6.88;4.68;;;14.90;99.90;;;;;;5031186;28;20110;-60
2022/07/07 05:48:01;;;;;;;4.95;3.88;;;15.00;99.90;;;;;;5030227;28;20139;-63
2022/07/07 05:50:34;;;;;;;3.88;3.10;;;15.00;99.90;;;;;;5011618;28;20673;-57
2022/07/07 05:53:02;;;;;;;6.72;4.18;;;15.10;99.90;;;;;;5028570;28;20525;-64
2022/07/07 05:55:29;;;;;;;12.38;4.43;;;15.20;99.90;;;;;;5012267;28;20238;-62
2022/07/07 05:57:57;;;;;;;4.40;3.88;;;15.30;99.90;;;;;;5032088;28;20050;-60
2022/07/07 06:00:25;;;;;;;4.93;3.47;;;15.30;99.90;;;;;;5031908;28;20234;-61
2022/07/07 06:02:53;;;;;;;5.18;4.65;;;15.40;99.90;;;;;;5031849;28;20227;-57
2022/07/07 06:05:21;;;;;;;7.53;4.28;;;15.50;99.90;;;;;;5013636;28;20881;-61
2022/07/07 06:07:48;;;;;;;4.20;3.75;;;15.60;99.90;;;;;;5012088;28;20301;-61
2022/07/07 06:10:16;;;;;;;5.47;4.25;;;15.70;99.90;;;;;;5010904;28;20313;-60
2022/07/07 06:12:43;;;;;;;4.72;4.00;;;15.80;99.90;;;;;;5014783;28;20196;-60
2022/07/07 06:15:10;;;;;;;13.35;4.15;;;15.80;99.90;;;;;;5013644;28;20547;-61
2022/07/07 06:17:39;;;;;;;8.95;4.22;;;15.80;99.90;;;;;;5014637;28;20558;-61
2022/07/07 06:20:27;;;;;;;4.30;3.65;;;15.80;99.90;;;;;;5017099;28;20044;-62
2022/07/07 06:22:55;;;;;;;6.65;4.28;;;15.80;99.90;;;;;;5034830;28;20369;-63
2022/07/07 06:25:23;;;;;;;6.43;3.67;;;15.80;99.90;;;;;;5017244;28;20055;-63
2022/07/07 06:27:50;;;;;;;8.30;3.83;;;15.90;99.90;;;;;;5032620;28;20036;-58
2022/07/07 06:30:17;;;;;;;8.35;4.68;;;15.90;99.90;;;;;;5037244;28;20379;-73
2022/07/07 06:32:44;;;;;;;7.78;3.75;;;16.00;99.90;;;;;;5032258;28;20554;-63
2022/07/07 06:35:12;;;;;;;12.57;4.60;;;16.10;99.90;;;;;;5035001;28;20147;-59
2022/07/07 06:37:39;;;;;;;10.52;4.65;;;16.10;99.90;;;;;;5037019;28;20055;-61
2022/07/07 06:40:07;;;;;;;8.10;3.85;;;16.20;99.90;;;;;;5033648;28;20120;-59
2022/07/07 06:42:34;;;;;;;7.28;4.00;;;16.30;99.90;;;;;;5036572;28;20809;-58
2022/07/07 06:45:06;;;;;;;11.60;4.65;;;16.40;99.90;;;;;;4997861;28;20680;-58
2022/07/07 06:47:33;;;;;;;8.07;4.53;;;16.50;99.90;;;;;;5035374;28;20044;-58
2022/07/07 06:50:00;;;;;;;5.97;3.72;;;16.60;99.90;;;;;;5014073;28;20361;-57
2022/07/07 06:52:27;;;;;;;4.65;3.60;;;16.70;99.90;;;;;;5015052;28;20129;-58
2022/07/07 06:54:55;;;;;;;4.72;3.75;;;16.80;99.90;;;;;;5011810;28;20044;-58
2022/07/07 06:57:22;;;;;;;5.93;3.13;;;16.90;99.90;;;;;;5011232;28;20090;-60
2022/07/07 06:59:49;;;;;;;11.32;4.00;;;17.00;99.90;;;;;;5016236;28;20098;-59
2022/07/07 07:02:16;;;;;;;5.00;4.10;;;17.00;99.90;;;;;;5030388;28;20449;-61
2022/07/07 07:04:43;;;;;;;5.97;4.10;;;17.00;99.90;;;;;;5036083;28;20205;-60
2022/07/07 07:07:10;;;;;;;8.07;4.20;;;17.10;99.90;;;;;;5034624;28;20100;-60
2022/07/07 07:09:38;;;;;;;5.55;3.85;;;17.20;99.90;;;;;;5030528;28;20058;-59
2022/07/07 07:12:06;;;;;;;12.63;3.70;;;17.20;99.90;;;;;;5016565;28;20051;-58
2022/07/07 07:14:33;;;;;;;5.07;3.42;;;17.30;99.90;;;;;;5009317;28;20044;-60
2022/07/07 07:17:00;;;;;;;6.95;3.85;;;17.30;99.90;;;;;;4995947;28;20163;-61
2022/07/07 07:19:28;;;;;;;8.48;4.57;;;17.40;99.90;;;;;;4983584;28;20208;-62
2022/07/07 07:21:55;;;;;;;3.67;2.70;;;17.40;99.90;;;;;;5034153;28;20039;-58
2022/07/07 07:24:22;;;;;;;6.35;3.58;;;17.50;99.90;;;;;;5017074;28;20748;-59
2022/07/07 07:26:50;;;;;;;7.28;3.00;;;17.60;99.90;;;;;;5014126;28;20155;-59
2022/07/07 07:29:17;;;;;;;4.03;2.75;;;17.60;99.90;;;;;;5018424;28;20097;-58
2022/07/07 07:31:44;;;;;;;4.57;2.80;;;17.70;99.90;;;;;;5033634;28;20051;-59
2022/07/07 07:34:11;;;;;;;4.93;2.60;;;17.70;99.90;;;;;;5030732;28;20040;-58
2022/07/07 07:36:39;;;;;;;5.03;3.13;;;17.80;99.90;;;;;;5013362;28;20132;-59
2022/07/07 07:39:06;;;;;;;7.68;2.58;;;17.90;99.90;;;;;;5016180;28;20566;-63
2022/07/07 07:41:33;;;;;;;6.90;2.65;;;18.00;99.90;;;;;;5031692;28;20927;-63
2022/07/07 07:44:01;;;;;;;4.85;3.35;;;18.20;99.90;;;;;;5033814;28;20058;-63
2022/07/07 07:46:28;;;;;;;6.20;2.95;;;18.40;99.90;;;;;;5033153;28;20802;-59
2022/07/07 07:48:56;;;;;;;8.60;2.97;;;18.60;99.90;;;;;;5015864;28;20225;-63
2022/07/07 07:51:23;;;;;;;4.40;2.70;;;18.80;99.90;;;;;;5010059;28;20059;-61
2022/07/07 07:53:51;;;;;;;7.15;3.55;;;18.90;99.90;;;;;;5020430;28;20846;-69
2022/07/07 07:56:19;;;;;;;9.13;3.35;;;19.20;99.90;;;;;;5025645;28;20342;-62
2022/07/07 07:58:46;;;;;;;3.88;3.50;;;19.40;99.90;;;;;;4991198;28;20059;-60
2022/07/07 08:01:13;;;;;;;5.55;2.72;;;19.50;99.90;;;;;;5023281;28;20074;-61
2022/07/07 08:03:41;;;;;;;2.83;2.63;;;19.60;99.90;;;;;;5008908;28;20059;-66
2022/07/07 08:06:08;;;;;;;6.20;3.00;;;19.70;99.90;;;;;;5022150;28;20108;-67
2022/07/07 08:08:36;;;;;;;6.15;3.40;;;19.90;99.90;;;;;;5022974;28;20040;-62
2022/07/07 08:11:03;;;;;;;5.30;3.30;;;20.00;99.90;;;;;;5003710;28;20037;-61
2022/07/07 08:13:31;;;;;;;5.57;2.65;;;19.90;99.90;;;;;;4979936;28;20162;-62
2022/07/07 08:15:58;;;;;;;4.40;2.60;;;19.90;99.90;;;;;;5021707;28;20048;-61
2022/07/07 08:18:27;;;;;;;10.45;3.00;;;19.90;99.90;;;;;;5011147;28;20047;-62
2022/07/07 08:20:54;;;;;;;5.53;2.85;;;20.00;99.90;;;;;;4971670;28;20044;-62
2022/07/07 08:23:22;;;;;;;5.00;2.92;;;20.20;99.90;;;;;;5004919;28;20407;-63
2022/07/07 08:25:49;;;;;;;12.02;3.03;;;20.40;99.90;;;;;;4987921;28;20206;-63
2022/07/07 08:28:16;;;;;;;3.72;2.47;;;20.60;99.90;;;;;;5007466;28;20363;-62
2022/07/07 08:30:44;;;;;;;4.25;3.63;;;20.90;99.90;;;;;;4969342;28;20041;-61
2022/07/07 08:33:12;;;;;;;5.63;2.83;;;21.10;99.90;;;;;;5004791;28;20048;-62
2022/07/07 08:35:39;;;;;;;6.78;2.90;;;21.20;98.50;;;;;;5018002;28;20750;-58
2022/07/07 08:38:06;;;;;;;18.65;3.00;;;21.20;99.90;;;;;;5025931;28;20071;-59
2022/07/07 08:40:34;;;;;;;4.63;2.55;;;21.30;99.90;;;;;;5023168;28;20125;-59
2022/07/07 08:43:01;;;;;;;5.68;2.97;;;21.40;99.80;;;;;;4990110;28;20405;-62
2022/07/07 08:45:28;;;;;;;3.50;2.60;;;21.50;99.90;;;;;;4989637;28;20040;-65
2022/07/07 08:47:56;;;;;;;5.55;2.67;;;21.60;99.90;;;;;;5023794;28;20782;-53
2022/07/07 08:50:25;;;;;;;5.45;2.72;;;21.70;93.70;;;;;;5001878;28;20783;-53
2022/07/07 08:52:54;;;;;;;7.68;2.72;;;21.60;98.20;;;;;;4983728;28;20063;-53
2022/07/07 08:55:23;;;;;;;4.18;2.53;;;21.60;97.50;;;;;;4989831;28;20214;-55
2022/07/07 08:57:52;;;;;;;3.67;2.53;;;21.60;97.20;;;;;;4986052;28;20151;-61
2022/07/07 09:00:20;;;;;;;2.38;2.15;;;21.60;97.70;;;;;;5016437;28;20838;-54
2022/07/07 09:02:49;;;;;;;4.45;2.80;;;21.60;99.80;;;;;;5004364;28;20040;-52
2022/07/07 09:05:16;;;;;;;7.97;3.30;;;21.70;92.90;;;;;;5001269;28;20179;-53
2022/07/07 09:07:49;;;;;;;11.32;3.35;;;21.70;94.70;;;;;;5003038;28;20029;-55
2022/07/07 09:10:40;;;;;;;4.95;2.58;;;21.60;92.80;;;;;;5016999;28;20040;-54
2022/07/07 09:13:24;;;;;;;7.50;2.70;;;21.50;95.90;;;;;;5015490;28;20040;-56
2022/07/07 09:16:15;;;;;;;7.32;2.42;;;21.50;97.00;;;;;;5003002;28;20037;-56
2022/07/07 09:18:46;;;;;;;9.00;3.17;;;21.50;93.40;;;;;;4984415;28;20056;-56
2022/07/07 09:21:32;;;;;;;3.90;2.83;;;21.50;93.10;;;;;;5009235;28;20049;-53
2022/07/07 09:24:02;;;;;;;10.13;3.03;;;21.40;97.60;;;;;;5009175;28;20122;-54
2022/07/07 09:26:38;;;;;;;4.88;2.30;;;21.60;96.30;;;;;;5027593;28;20905;-56
2022/07/07 09:29:09;;;;;;;4.00;2.90;;;21.80;91.00;;;;;;4990946;28;20574;-55
2022/07/07 09:31:55;;;;;;;7.47;2.92;;;22.00;87.00;;;;;;5030079;28;20107;-56
2022/07/07 09:34:28;;;;;;;7.95;2.80;;;22.10;90.20;;;;;;5021305;28;20592;-55
2022/07/07 09:39:45;;;;;;;;;;;22.50;90.70;;;;;;5027779;28;20072;-54
2022/07/07 09:42:34;;;;;;;4.75;2.08;;;22.60;87.40;;;;;;5029707;28;19942;-55
2022/07/07 09:45:11;;;;;;;7.15;2.67;;;22.80;87.60;;;;;;5006718;28;20044;-55
2022/07/07 09:47:38;;;;;;;4.70;2.35;;;22.70;77.20;;;;;;4994185;28;20581;-54
2022/07/07 09:50:14;;;;;;;2.50;1.92;;;22.60;82.20;;;;;;5030179;28;20382;-59
2022/07/07 09:52:47;;;;;;;3.88;2.00;;;22.60;82.60;;;;;;5049047;28;20090;-51
2022/07/07 09:55:15;;;;;;;7.30;2.55;;;22.70;89.70;;;;;;5035706;28;20197;-56
2022/07/07 09:57:44;;;;;;;9.38;2.90;;;22.70;88.70;;;;;;5025738;28;20730;-55
2022/07/07 10:00:12;;;;;;;3.72;2.05;;;22.70;87.40;;;;;;5032292;28;20040;-54
2022/07/07 10:02:39;;;;;;;4.20;2.05;;;22.60;83.70;;;;;;5014881;28;20033;-53
2022/07/07 10:05:07;;;;;;;4.43;2.10;;;22.40;86.00;;;;;;5010592;28;20051;-54
2022/07/07 10:07:35;;;;;;;3.72;2.03;;;22.30;85.70;;;;;;5005648;28;20036;-52
2022/07/07 10:10:08;;;;;;;6.60;2.05;;;22.10;90.30;;;;;;4966637;28;20891;-54
2022/07/07 10:12:44;;;;;;;2.95;1.75;;;22.10;90.10;;;;;;5021745;28;20028;-56
2022/07/07 10:15:12;;;;;;;3.43;1.83;;;21.90;90.50;;;;;;5001628;28;20048;-53
2022/07/07 10:17:41;;;;;;;6.43;2.00;;;21.80;91.50;;;;;;5010324;28;20438;-55
2022/07/07 10:20:09;;;;;;;4.43;1.83;;;21.70;89.90;;;;;;5008663;28;20514;-55
2022/07/07 10:22:37;;;;;;;3.40;1.80;;;21.70;90.50;;;;;;5004065;28;20583;-54
2022/07/07 10:25:07;;;;;;;4.32;1.70;;;21.60;91.50;;;;;;4999869;28;20213;-55
2022/07/07 10:27:35;;;;;;;2.20;1.80;;;21.60;90.90;;;;;;4993610;28;20877;-55
2022/07/07 10:30:04;;;;;;;3.63;1.75;;;21.60;91.80;;;;;;5026035;28;20578;-54
2022/07/07 10:32:38;;;;;;;4.97;1.90;;;21.60;84.50;;;;;;5024678;28;20147;-55
2022/07/07 10:35:13;;;;;;;1.65;1.40;;;21.60;80.00;;;;;;5023489;28;20812;-54
2022/07/07 10:37:47;;;;;;;4.47;1.88;;;21.70;82.20;;;;;;5008171;28;20052;-54
2022/07/07 10:40:26;;;;;;;14.18;2.58;;;21.90;78.10;;;;;;4986191;28;20052;-55
2022/07/07 10:43:19;;;;;;;4.35;2.33;;;22.10;68.40;;;;;;4986115;28;20107;-55
2022/07/07 10:45:49;;;;;;;4.40;2.33;;;22.10;71.20;;;;;;4994559;28;20048;-55
2022/07/07 10:48:44;;;;;;;7.57;2.45;;;22.10;70.10;;;;;;4985214;28;20590;-59
2022/07/07 10:51:22;;;;;;;3.88;1.52;;;22.20;74.30;;;;;;4992321;28;20070;-55
2022/07/07 10:54:01;;;;;;;5.82;2.17;;;22.40;77.10;;;;;;5011027;28;20577;-54
2022/07/07 10:56:51;;;;;;;8.27;2.00;;;22.60;68.60;;;;;;5010908;28;20215;-54
2022/07/07 10:59:20;;;;;;;7.80;2.38;;;22.70;71.10;;;;;;5011602;28;20858;-54
2022/07/07 11:02:02;;;;;;;2.35;1.85;;;22.80;67.90;;;;;;5017204;28;20899;-54
2022/07/07 11:04:41;;;;;;;8.15;1.80;;;22.70;76.20;;;;;;5026539;28;20835;-53
2022/07/07 11:07:28;;;;;;;2.83;1.80;;;22.70;72.90;;;;;;5030201;28;20036;-57
2022/07/07 11:09:58;;;;;;;3.73;2.17;;;22.70;72.00;;;;;;5019380;28;20321;-57
2022/07/07 11:12:41;;;;;;;4.22;1.90;;;22.70;69.90;;;;;;5010151;28;20045;-57
2022/07/07 11:15:14;;;;;;;6.40;1.75;;;22.70;70.00;;;;;;5012932;28;20774;-56
2022/07/07 11:17:47;;;;;;;5.47;2.25;;;22.80;71.70;;;;;;5012460;28;20750;-57
2022/07/07 11:20:19;;;;;;;2.60;2.00;;;22.90;69.60;;;;;;5015018;28;20333;-56
2022/07/07 11:23:15;;;;;;;7.30;2.45;;;22.90;67.20;;;;;;5011057;28;20191;-56
2022/07/07 11:25:44;;;;;;;3.50;2.55;;;22.70;64.60;;;;;;4991913;28;20836;-55
2022/07/07 11:28:11;;;;;;;6.60;2.45;;;22.60;68.60;;;;;;5014070;28;20577;-56
2022/07/07 11:30:41;;;;;;;5.45;1.85;;;22.50;66.70;;;;;;5010572;28;20156;-57
2022/07/07 11:33:10;;;;;;;4.68;1.90;;;22.40;70.40;;;;;;5012387;28;20033;-56
2022/07/07 11:35:40;;;;;;;6.00;2.40;;;22.40;75.70;;;;;;5010094;28;21020;-56
2022/07/07 11:38:12;;;;;;;4.65;2.20;;;22.50;70.80;;;;;;5011912;28;20347;-56
2022/07/07 11:40:42;;;;;;;4.45;1.77;;;22.60;69.90;;;;;;5028955;28;20032;-57
2022/07/07 11:43:23;;;;;;;3.13;1.90;;;22.70;69.50;;;;;;5031306;28;20038;-56
2022/07/07 11:45:50;;;;;;;3.90;2.10;;;22.80;68.70;;;;;;5031436;28;20035;-55
2022/07/07 11:48:18;;;;;;;5.25;2.25;;;22.90;64.50;;;;;;5034003;28;20401;-56
2022/07/07 11:50:45;;;;;;;3.35;2.03;;;22.80;65.00;;;;;;5030877;28;20044;-55
2022/07/07 11:53:13;;;;;;;2.30;1.67;;;22.70;63.40;;;;;;5028512;28;20607;-55
2022/07/07 11:55:42;;;;;;;5.15;1.65;;;22.60;66.50;;;;;;5031695;28;20105;-56
2022/07/07 11:58:10;;;;;;;5.80;1.75;;;22.70;67.30;;;;;;5026284;28;20132;-55
2022/07/07 12:00:39;;;;;;;3.58;1.92;;;22.70;68.80;;;;;;5011911;28;20035;-56
2022/07/07 12:03:08;;;;;;;2.35;1.88;;;22.70;66.90;;;;;;5029315;28;20044;-55
2022/07/07 12:05:45;;;;;;;2.10;1.50;;;22.70;63.80;;;;;;5029462;28;20189;-56
2022/07/07 12:08:14;;;;;;;3.40;1.80;;;22.70;65.80;;;;;;5030052;28;20118;-55
2022/07/07 12:10:43;;;;;;;4.65;1.83;;;22.70;63.40;;;;;;5013692;28;20599;-56
2022/07/07 12:13:12;;;;;;;2.75;0.98;;;22.70;61.20;;;;;;5023532;28;20514;-55
2022/07/07 12:15:45;;;;;;;3.65;1.30;;;22.70;64.80;;;;;;5010321;28;20155;-57
2022/07/07 12:18:13;;;;;;;6.30;1.65;;;22.70;59.90;;;;;;5013100;28;20041;-56
2022/07/07 12:20:41;;;;;;;7.85;1.58;;;22.70;58.90;;;;;;5011658;28;20193;-55
2022/07/07 12:23:16;;;;;;;4.85;1.20;;;22.70;62.10;;;;;;5011181;28;20043;-55
2022/07/07 12:25:43;;;;;;;3.47;1.13;;;22.70;60.70;;;;;;5011581;28;20040;-56
2022/07/07 12:28:17;;;;;;;2.13;1.00;;;22.70;61.50;;;;;;5011591;28;20721;-54
2022/07/07 12:30:56;;;;;;;3.72;1.10;;;22.90;62.70;;;;;;5009374;28;20037;-56
2022/07/07 12:33:32;;;;;;;2.28;1.48;;;23.20;62.50;;;;;;5011937;28;20732;-55
2022/07/07 12:36:22;;;;;;;5.68;1.05;;;23.50;59.80;;;;;;5013451;28;20041;-55
2022/07/07 12:38:59;;;;;;;4.15;1.23;;;23.90;61.60;;;;;;5013902;28;20183;-57
2022/07/07 12:41:27;;;;;;;1.25;0.88;;;24.10;58.20;;;;;;5012582;28;20052;-55
2022/07/07 12:43:57;;;;;;;1.95;0.88;;;24.20;56.10;;;;;;4993578;28;20241;-55
2022/07/07 12:46:35;;;;;;;4.07;0.93;;;24.30;57.40;;;;;;5012703;28;20040;-55
2022/07/07 12:49:04;;;;;;;3.08;1.20;;;24.70;56.70;;;;;;5012744;28;20045;-56
2022/07/07 12:51:32;;;;;;;5.25;1.42;;;24.90;55.50;;;;;;4995462;28;20032;-57
2022/07/07 12:53:59;;;;;;;2.85;0.95;;;25.00;54.60;;;;;;5008666;28;20044;-56
2022/07/07 12:56:33;;;;;;;10.25;1.55;;;25.00;55.80;;;;;;5013617;28;20040;-57
2022/07/07 12:59:13;;;;;;;5.82;1.33;;;25.00;55.90;;;;;;4990130;28;20412;-56
2022/07/07 13:01:40;;;;;;;1.80;1.00;;;25.00;55.40;;;;;;5000387;28;20348;-56